Taurus — WDB5562 — position and weather

sailwx.info

Track history (hours):
 
Tides and Currents Weather Stations Pressure Air Temp Water Temp Dewpoint Dewpoint Depression Visibility Wind Speed Wind Dir Waves Ship Positions

Taurus

Owner: Kirby Offshore Marine, LLC, Seattle, WA. More information available from US FCC via Universal Licensing System and Coast Guard Vessel Documentation Center.

Last reported at 2018-Jan-22 08:30 UTC. Time now 2018-Jan-22 08:48 UTC.
Position N 39°52' W 075°13'.

Length 24 m.

Type: Ship (hazmat cat B). MMSI: 366910990.

Date/timePositionNaut miles runAvg speedWind from/ knotsBaromVisibWave heightAir tempDewpointWater temp
2018-Jan-22 08:30N 39°52' W 075°13'3 6.8
2018-Jan-22 08:00N 39°53' W 075°09'3 6.7
2018-Jan-22 07:29N 39°56' W 075°08'3 6.3
2018-Jan-22 07:00N 39°59' W 075°05'1 1.4
2018-Jan-22 06:30N 39°59' W 075°05'2 4.5
2018-Jan-22 06:00N 39°58' W 075°07'4 7.9
2018-Jan-22 05:30N 39°54' W 075°08'3 6.1
2018-Jan-22 05:00N 39°53' W 075°12'1 2.3
2018-Jan-22 04:30N 39°54' W 075°13'0 0.0
2018-Jan-22 03:59N 39°54' W 075°13'0 0.2
2018-Jan-22 03:30N 39°54' W 075°13'1 2.2
2018-Jan-22 03:00N 39°53' W 075°12'3 5.6
2018-Jan-22 02:30N 39°54' W 075°08'4 7.5
2018-Jan-22 02:00N 39°57' W 075°08'3 5.9
2018-Jan-22 01:30N 39°59' W 075°05'1 1.9
2018-Jan-22 01:00N 39°59' W 075°06'3 6.0
2018-Jan-22 00:30N 39°56' W 075°08'3 6.5
2018-Jan-22 00:00N 39°53' W 075°09'3 6.6
2018-Jan-21 23:30N 39°52' W 075°13'4 7.1
2018-Jan-21 23:00N 39°51' W 075°17'4 7.3
2018-Jan-21 22:30N 39°50' W 075°22'1 2.2
2018-Jan-21 22:00N 39°50' W 075°23'2 4.0
2018-Jan-21 21:30N 39°48' W 075°25'0 0.0
2018-Jan-21 21:00N 39°48' W 075°25'0 0.0
2018-Jan-21 20:30N 39°48' W 075°25'0 0.0
2018-Jan-21 20:00N 39°48' W 075°25'0 0.0
2018-Jan-21 19:30N 39°48' W 075°25'0 0.0
2018-Jan-21 19:00N 39°48' W 075°25'0 0.0
2018-Jan-21 18:30N 39°48' W 075°25'0 0.0
2018-Jan-21 18:00N 39°48' W 075°25'0 0.0
2018-Jan-21 17:30N 39°48' W 075°25'0 0.0
2018-Jan-21 17:00N 39°48' W 075°25'0 0.0
2018-Jan-21 16:30N 39°48' W 075°25'0 0.0
2018-Jan-21 16:00N 39°48' W 075°25'0 0.0
2018-Jan-21 15:31N 39°48' W 075°25'0 0.0
2018-Jan-21 15:00N 39°48' W 075°25'0 0.0
2018-Jan-21 14:30N 39°48' W 075°25'0 0.0
2018-Jan-21 14:00N 39°48' W 075°25'0 0.0
2018-Jan-21 13:30N 39°48' W 075°25'0 0.0
2018-Jan-21 13:00N 39°48' W 075°25'0 0.1
2018-Jan-21 12:30N 39°48' W 075°25'0 0.2
2018-Jan-21 12:00N 39°48' W 075°25'2 3.5
2018-Jan-21 11:30N 39°49' W 075°23'1 1.3
2018-Jan-21 11:01N 39°50' W 075°23'4 7.1
2018-Jan-21 10:29N 39°51' W 075°18'0 0.0
2018-Jan-21 10:00N 39°51' W 075°18'0 0.0
2018-Jan-21 09:30N 39°51' W 075°18'0 0.0
2018-Jan-21 09:01N 39°51' W 075°18'0 0.0
2018-Jan-21 08:30N 39°51' W 075°18'0 0.0
2018-Jan-21 07:58N 39°51' W 075°18'0 0.0
2018-Jan-21 07:30N 39°51' W 075°18'0 0.0
2018-Jan-21 07:00N 39°51' W 075°18'0 0.0
2018-Jan-21 06:30N 39°51' W 075°18'0 0.0
2018-Jan-21 06:00N 39°51' W 075°18'0 0.0
2018-Jan-21 05:30N 39°51' W 075°18'0 0.0
2018-Jan-21 05:00N 39°51' W 075°18'0 0.0
2018-Jan-21 04:30N 39°51' W 075°18'0 0.0
2018-Jan-21 04:00N 39°51' W 075°18'0 0.0
2018-Jan-21 03:30N 39°51' W 075°18'0 0.0
2018-Jan-21 03:00N 39°51' W 075°18'0 0.0
2018-Jan-21 02:30N 39°51' W 075°18'0 0.0
2018-Jan-21 02:01N 39°51' W 075°18'0 0.0
2018-Jan-21 01:30N 39°51' W 075°18'0 0.0
2018-Jan-21 01:00N 39°51' W 075°18'0 0.0
2018-Jan-21 00:30N 39°51' W 075°18'0 0.9
2018-Jan-21 00:00N 39°51' W 075°18'3 6.6
2018-Jan-20 23:30N 39°50' W 075°22'0 0.9
2018-Jan-20 23:00N 39°50' W 075°23'0 0.0
2018-Jan-20 22:30N 39°50' W 075°23'0 0.0
2018-Jan-20 22:00N 39°50' W 075°23'0 0.4
2018-Jan-20 21:30N 39°49' W 075°23'2 3.7
2018-Jan-20 21:00N 39°48' W 075°25'0 0.0
2018-Jan-20 20:31N 39°48' W 075°25'0 0.0
2018-Jan-20 20:00N 39°48' W 075°25'0 0.0
2018-Jan-20 19:30N 39°48' W 075°25'0 0.0
2018-Jan-20 19:00N 39°48' W 075°25'0 0.0
2018-Jan-20 18:30N 39°48' W 075°25'0 0.0
2018-Jan-20 18:00N 39°48' W 075°25'0 0.0
2018-Jan-20 17:30N 39°48' W 075°25'0 0.0
2018-Jan-20 17:00N 39°48' W 075°25'0 0.0
2018-Jan-20 16:30N 39°48' W 075°25'0 0.0
2018-Jan-20 16:00N 39°48' W 075°25'0 0.0
2018-Jan-20 15:30N 39°48' W 075°25'0 0.0
2018-Jan-20 15:00N 39°48' W 075°25'0 0.0
2018-Jan-20 14:30N 39°48' W 075°25'0 0.0
2018-Jan-20 14:01N 39°48' W 075°25'0 0.0
2018-Jan-20 13:30N 39°48' W 075°25'0 0.0
2018-Jan-20 13:00N 39°48' W 075°25'0 0.0
2018-Jan-20 12:30N 39°48' W 075°25'0 0.0
2018-Jan-20 12:00N 39°48' W 075°25'2 3.1
2018-Jan-20 11:30N 39°49' W 075°23'1 1.0
2018-Jan-20 11:00N 39°50' W 075°23'0 0.0
2018-Jan-20 10:30N 39°50' W 075°23'2 3.9
2018-Jan-20 10:00N 39°51' W 075°21'5 9.7
2018-Jan-20 09:30N 39°51' W 075°15'4 8.7
2018-Jan-20 09:00N 39°53' W 075°09'4 7.7
2018-Jan-20 08:30N 39°57' W 075°08'4 7.1
2018-Jan-20 08:00N 39°59' W 075°05'0 0.3
2018-Jan-20 07:30N 39°59' W 075°04'4 7.6
2018-Jan-20 07:00N 39°56' W 075°08'4 7.3
2018-Jan-20 06:30N 39°53' W 075°10'2 4.5
2018-Jan-20 06:01N 39°54' W 075°13'0 0.0
2018-Jan-20 05:30N 39°54' W 075°13'1 1.8
2018-Jan-20 05:00N 39°53' W 075°12'0 0.0
2018-Jan-20 04:30N 39°53' W 075°12'0 0.0
2018-Jan-20 04:00N 39°53' W 075°12'0 0.0
2018-Jan-20 03:30N 39°53' W 075°12'0 0.0
2018-Jan-20 03:00N 39°53' W 075°12'0 0.0
2018-Jan-20 02:31N 39°53' W 075°12'0 0.0
2018-Jan-20 02:00N 39°53' W 075°12'0 0.0
2018-Jan-20 01:30N 39°53' W 075°12'1 2.0
2018-Jan-20 01:00N 39°54' W 075°13'1 2.1
2018-Jan-20 00:31N 39°53' W 075°12'3 5.3
2018-Jan-20 00:00N 39°54' W 075°08'4 7.9
2018-Jan-19 23:30N 39°58' W 075°08'3 5.8
2018-Jan-19 23:00N 39°59' W 075°05'0 0.9
2018-Jan-19 22:30N 39°59' W 075°05'3 6.9
2018-Jan-19 22:00N 39°56' W 075°08'3 6.9
2018-Jan-19 21:30N 39°53' W 075°10'2 4.3
2018-Jan-19 21:00N 39°54' W 075°12'1 2.5
2018-Jan-19 20:30N 39°53' W 075°11'3 5.7
2018-Jan-19 20:00N 39°54' W 075°08'3 6.2
2018-Jan-19 19:30N 39°58' W 075°08'3 5.8
2018-Jan-19 19:00N 39°59' W 075°04'0 0.4
2018-Jan-19 18:31N 39°59' W 075°04'4 8.5
2018-Jan-19 18:00N 39°56' W 075°08'4 8.2
2018-Jan-19 17:30N 39°53' W 075°12'510.8
2018-Jan-19 17:00N 39°51' W 075°18'3 5.6
2018-Jan-19 16:30N 39°50' W 075°22'0 0.2
2018-Jan-19 16:00N 39°50' W 075°22'0 0.2
2018-Jan-19 15:30N 39°50' W 075°22'0 0.1
2018-Jan-19 15:00N 39°50' W 075°22'0 0.4
2018-Jan-19 14:30N 39°49' W 075°22'0 0.0
2018-Jan-19 14:00N 39°49' W 075°22'0 0.0
2018-Jan-19 13:30N 39°49' W 075°22'0 0.0
2018-Jan-19 13:00N 39°49' W 075°22'0 0.1
2018-Jan-19 12:30N 39°49' W 075°22'0 0.1
2018-Jan-19 12:00N 39°49' W 075°22'0 0.1
2018-Jan-19 11:30N 39°49' W 075°22'0 0.1
2018-Jan-19 11:00N 39°49' W 075°22'0 0.3
2018-Jan-19 10:30N 39°50' W 075°22'4 8.1
2018-Jan-19 10:00N 39°51' W 075°17'510.4
2018-Jan-19 09:31N 39°53' W 075°11'4 7.9
2018-Jan-19 09:00N 39°57' W 075°08'4 7.4
2018-Jan-19 08:30N 39°59' W 075°05'0 0.1
2018-Jan-19 08:00N 39°59' W 075°05'3 5.4
2018-Jan-19 07:31N 39°58' W 075°08'4 8.9
2018-Jan-19 07:00N 39°53' W 075°08'3 6.3
2018-Jan-19 06:30N 39°54' W 075°12'0 0.8
2018-Jan-19 06:01N 39°54' W 075°13'1 1.6
2018-Jan-19 05:30N 39°54' W 075°12'0 0.0
2018-Jan-19 04:59N 39°54' W 075°12'0 0.0
2018-Jan-19 00:31N 39°54' W 075°12'0 0.0
2018-Jan-19 00:31N 39°54' W 075°12'0 0.6
2018-Jan-19 00:00N 39°54' W 075°12'0 0.0
2018-Jan-18 23:30N 39°54' W 075°12'0 0.0
2018-Jan-18 23:00N 39°54' W 075°12'0 0.0
2018-Jan-18 22:30N 39°54' W 075°12'3 6.3
2018-Jan-18 22:00N 39°51' W 075°15'4 7.9
2018-Jan-18 21:30N 39°51' W 075°20'3 5.6
2018-Jan-18 21:01N 39°50' W 075°23'2 2.3
2018-Jan-18 20:07N 39°48' W 075°25'0 0.0
2018-Jan-18 20:00N 39°48' W 075°25'0 0.0
2018-Jan-18 19:30N 39°48' W 075°25'0 0.0
2018-Jan-18 19:00N 39°48' W 075°25'0 0.0
2018-Jan-18 18:30N 39°48' W 075°25'0 0.0
2018-Jan-18 17:59N 39°48' W 075°25'0 0.0
2018-Jan-18 17:30N 39°48' W 075°25'0 0.0
2018-Jan-18 17:00N 39°48' W 075°25'0 0.0
2018-Jan-18 16:30N 39°48' W 075°25'0 0.0
2018-Jan-18 16:00N 39°48' W 075°25'0 0.0
2018-Jan-18 15:30N 39°48' W 075°25'0 0.0
2018-Jan-18 15:00N 39°48' W 075°25'0 0.0
2018-Jan-18 14:30N 39°48' W 075°25'0 0.0
2018-Jan-18 14:00N 39°48' W 075°25'0 0.0
2018-Jan-18 13:30N 39°48' W 075°25'0 0.0
2018-Jan-18 13:00N 39°48' W 075°25'0 0.0
2018-Jan-18 12:30N 39°48' W 075°25'1 2.5
2018-Jan-18 12:00N 39°49' W 075°24'1 1.5
2018-Jan-18 11:30N 39°50' W 075°23'0 0.1
2018-Jan-18 11:01N 39°50' W 075°23'0 0.2
2018-Jan-18 10:30N 39°50' W 075°23'0 0.0
2018-Jan-18 10:00N 39°50' W 075°23'0 0.0
2018-Jan-18 09:30N 39°50' W 075°23'0 0.0
2018-Jan-18 09:00N 39°50' W 075°23'0 0.0
2018-Jan-18 08:30N 39°50' W 075°23'0 0.0
2018-Jan-18 08:00N 39°50' W 075°23'0 0.0
2018-Jan-18 07:31N 39°50' W 075°23'0 0.0
2018-Jan-18 07:00N 39°50' W 075°23'0 0.0
2018-Jan-18 06:30N 39°50' W 075°23'0 0.0
2018-Jan-18 06:01N 39°50' W 075°23'0 0.0
2018-Jan-18 05:30N 39°50' W 075°23'0 0.0
2018-Jan-18 05:00N 39°50' W 075°23'0 0.0
2018-Jan-18 04:30N 39°50' W 075°23'0 0.0
2018-Jan-18 04:00N 39°50' W 075°23'0 0.0
2018-Jan-18 03:30N 39°50' W 075°23'0 0.0
2018-Jan-18 03:00N 39°50' W 075°23'0 0.0
2018-Jan-18 02:30N 39°50' W 075°23'0 0.0
2018-Jan-18 02:00N 39°50' W 075°23'0 0.0
2018-Jan-18 01:30N 39°50' W 075°23'0 0.0
2018-Jan-18 01:01N 39°50' W 075°23'0 0.0
2018-Jan-18 00:00N 39°50' W 075°23'0 0.0
2018-Jan-17 23:58N 39°50' W 075°23'  
2018-Jan-12 15:00N 39°50' W 075°21'1 2.3
2018-Jan-12 14:30N 39°49' W 075°22'1 2.9
2018-Jan-12 14:00N 39°51' W 075°21'2 4.2
2018-Jan-12 13:30N 39°51' W 075°18'0 0.0
2018-Jan-12 13:00N 39°51' W 075°18'0 0.1
2018-Jan-12 12:31N 39°51' W 075°18'3 6.5
2018-Jan-12 12:01N 39°50' W 075°22'0 0.8
2018-Jan-12 11:31N 39°50' W 075°22'0 0.1
2018-Jan-12 11:00N 39°50' W 075°22'0 0.0
2018-Jan-12 10:30N 39°50' W 075°22'0 0.0
2018-Jan-12 10:00N 39°50' W 075°22'0 0.0
2018-Jan-12 09:30N 39°50' W 075°22'0 0.0
2018-Jan-12 09:00N 39°50' W 075°22'  
Track history (hours):
 
Tides and Currents Weather Stations Pressure Air Temp Water Temp Dewpoint Dewpoint Depression Visibility Wind Speed Wind Dir Waves Ship Positions

Taurus

Owner: Kirby Offshore Marine, LLC, Seattle, WA. More information available from US FCC via Universal Licensing System and Coast Guard Vessel Documentation Center.

Last reported at 2018-Jan-22 08:30 UTC. Time now 2018-Jan-22 08:48 UTC.
Position N 39°52' W 075°13'.

Length 24 m.

Type: Ship (hazmat cat B). MMSI: 366910990.

Date/timePositionNaut miles runAvg speedWind from/ knotsBaromVisibWave heightAir tempDewpointWater temp
2018-Jan-22 08:30N 39°52' W 075°13'3 6.8
2018-Jan-22 08:00N 39°53' W 075°09'3 6.7
2018-Jan-22 07:29N 39°56' W 075°08'3 6.3
2018-Jan-22 07:00N 39°59' W 075°05'1 1.4
2018-Jan-22 06:30N 39°59' W 075°05'2 4.5
2018-Jan-22 06:00N 39°58' W 075°07'4 7.9
2018-Jan-22 05:30N 39°54' W 075°08'3 6.1
2018-Jan-22 05:00N 39°53' W 075°12'1 2.3
2018-Jan-22 04:30N 39°54' W 075°13'0 0.0
2018-Jan-22 03:59N 39°54' W 075°13'0 0.2
2018-Jan-22 03:30N 39°54' W 075°13'1 2.2
2018-Jan-22 03:00N 39°53' W 075°12'3 5.6
2018-Jan-22 02:30N 39°54' W 075°08'4 7.5
2018-Jan-22 02:00N 39°57' W 075°08'3 5.9
2018-Jan-22 01:30N 39°59' W 075°05'1 1.9
2018-Jan-22 01:00N 39°59' W 075°06'3 6.0
2018-Jan-22 00:30N 39°56' W 075°08'3 6.5
2018-Jan-22 00:00N 39°53' W 075°09'3 6.6
2018-Jan-21 23:30N 39°52' W 075°13'4 7.1
2018-Jan-21 23:00N 39°51' W 075°17'4 7.3
2018-Jan-21 22:30N 39°50' W 075°22'1 2.2
2018-Jan-21 22:00N 39°50' W 075°23'2 4.0
2018-Jan-21 21:30N 39°48' W 075°25'0 0.0
2018-Jan-21 21:00N 39°48' W 075°25'0 0.0
2018-Jan-21 20:30N 39°48' W 075°25'0 0.0
2018-Jan-21 20:00N 39°48' W 075°25'0 0.0
2018-Jan-21 19:30N 39°48' W 075°25'0 0.0
2018-Jan-21 19:00N 39°48' W 075°25'0 0.0
2018-Jan-21 18:30N 39°48' W 075°25'0 0.0
2018-Jan-21 18:00N 39°48' W 075°25'0 0.0
2018-Jan-21 17:30N 39°48' W 075°25'0 0.0
2018-Jan-21 17:00N 39°48' W 075°25'0 0.0
2018-Jan-21 16:30N 39°48' W 075°25'0 0.0
2018-Jan-21 16:00N 39°48' W 075°25'0 0.0
2018-Jan-21 15:31N 39°48' W 075°25'0 0.0
2018-Jan-21 15:00N 39°48' W 075°25'0 0.0
2018-Jan-21 14:30N 39°48' W 075°25'0 0.0
2018-Jan-21 14:00N 39°48' W 075°25'0 0.0
2018-Jan-21 13:30N 39°48' W 075°25'0 0.0
2018-Jan-21 13:00N 39°48' W 075°25'0 0.1
2018-Jan-21 12:30N 39°48' W 075°25'0 0.2
2018-Jan-21 12:00N 39°48' W 075°25'2 3.5
2018-Jan-21 11:30N 39°49' W 075°23'1 1.3
2018-Jan-21 11:01N 39°50' W 075°23'4 7.1
2018-Jan-21 10:29N 39°51' W 075°18'0 0.0
2018-Jan-21 10:00N 39°51' W 075°18'0 0.0
2018-Jan-21 09:30N 39°51' W 075°18'0 0.0
2018-Jan-21 09:01N 39°51' W 075°18'0 0.0
2018-Jan-21 08:30N 39°51' W 075°18'0 0.0
2018-Jan-21 07:58N 39°51' W 075°18'0 0.0
2018-Jan-21 07:30N 39°51' W 075°18'0 0.0
2018-Jan-21 07:00N 39°51' W 075°18'0 0.0
2018-Jan-21 06:30N 39°51' W 075°18'0 0.0
2018-Jan-21 06:00N 39°51' W 075°18'0 0.0
2018-Jan-21 05:30N 39°51' W 075°18'0 0.0
2018-Jan-21 05:00N 39°51' W 075°18'0 0.0
2018-Jan-21 04:30N 39°51' W 075°18'0 0.0
2018-Jan-21 04:00N 39°51' W 075°18'0 0.0
2018-Jan-21 03:30N 39°51' W 075°18'0 0.0
2018-Jan-21 03:00N 39°51' W 075°18'0 0.0
2018-Jan-21 02:30N 39°51' W 075°18'0 0.0
2018-Jan-21 02:01N 39°51' W 075°18'0 0.0
2018-Jan-21 01:30N 39°51' W 075°18'0 0.0
2018-Jan-21 01:00N 39°51' W 075°18'0 0.0
2018-Jan-21 00:30N 39°51' W 075°18'0 0.9
2018-Jan-21 00:00N 39°51' W 075°18'3 6.6
2018-Jan-20 23:30N 39°50' W 075°22'0 0.9
2018-Jan-20 23:00N 39°50' W 075°23'0 0.0
2018-Jan-20 22:30N 39°50' W 075°23'0 0.0
2018-Jan-20 22:00N 39°50' W 075°23'0 0.4
2018-Jan-20 21:30N 39°49' W 075°23'2 3.7
2018-Jan-20 21:00N 39°48' W 075°25'0 0.0
2018-Jan-20 20:31N 39°48' W 075°25'0 0.0
2018-Jan-20 20:00N 39°48' W 075°25'0 0.0
2018-Jan-20 19:30N 39°48' W 075°25'0 0.0
2018-Jan-20 19:00N 39°48' W 075°25'0 0.0
2018-Jan-20 18:30N 39°48' W 075°25'0 0.0
2018-Jan-20 18:00N 39°48' W 075°25'0 0.0
2018-Jan-20 17:30N 39°48' W 075°25'0 0.0
2018-Jan-20 17:00N 39°48' W 075°25'0 0.0
2018-Jan-20 16:30N 39°48' W 075°25'0 0.0
2018-Jan-20 16:00N 39°48' W 075°25'0 0.0
2018-Jan-20 15:30N 39°48' W 075°25'0 0.0
2018-Jan-20 15:00N 39°48' W 075°25'0 0.0
2018-Jan-20 14:30N 39°48' W 075°25'0 0.0
2018-Jan-20 14:01N 39°48' W 075°25'0 0.0
2018-Jan-20 13:30N 39°48' W 075°25'0 0.0
2018-Jan-20 13:00N 39°48' W 075°25'0 0.0
2018-Jan-20 12:30N 39°48' W 075°25'0 0.0
2018-Jan-20 12:00N 39°48' W 075°25'2 3.1
2018-Jan-20 11:30N 39°49' W 075°23'1 1.0
2018-Jan-20 11:00N 39°50' W 075°23'0 0.0
2018-Jan-20 10:30N 39°50' W 075°23'2 3.9
2018-Jan-20 10:00N 39°51' W 075°21'5 9.7
2018-Jan-20 09:30N 39°51' W 075°15'4 8.7
2018-Jan-20 09:00N 39°53' W 075°09'4 7.7
2018-Jan-20 08:30N 39°57' W 075°08'4 7.1
2018-Jan-20 08:00N 39°59' W 075°05'0 0.3
2018-Jan-20 07:30N 39°59' W 075°04'4 7.6
2018-Jan-20 07:00N 39°56' W 075°08'4 7.3
2018-Jan-20 06:30N 39°53' W 075°10'2 4.5
2018-Jan-20 06:01N 39°54' W 075°13'0 0.0
2018-Jan-20 05:30N 39°54' W 075°13'1 1.8
2018-Jan-20 05:00N 39°53' W 075°12'0 0.0
2018-Jan-20 04:30N 39°53' W 075°12'0 0.0
2018-Jan-20 04:00N 39°53' W 075°12'0 0.0
2018-Jan-20 03:30N 39°53' W 075°12'0 0.0
2018-Jan-20 03:00N 39°53' W 075°12'0 0.0
2018-Jan-20 02:31N 39°53' W 075°12'0 0.0
2018-Jan-20 02:00N 39°53' W 075°12'0 0.0
2018-Jan-20 01:30N 39°53' W 075°12'1 2.0
2018-Jan-20 01:00N 39°54' W 075°13'1 2.1
2018-Jan-20 00:31N 39°53' W 075°12'3 5.3
2018-Jan-20 00:00N 39°54' W 075°08'4 7.9
2018-Jan-19 23:30N 39°58' W 075°08'3 5.8
2018-Jan-19 23:00N 39°59' W 075°05'0 0.9
2018-Jan-19 22:30N 39°59' W 075°05'3 6.9
2018-Jan-19 22:00N 39°56' W 075°08'3 6.9
2018-Jan-19 21:30N 39°53' W 075°10'2 4.3
2018-Jan-19 21:00N 39°54' W 075°12'1 2.5
2018-Jan-19 20:30N 39°53' W 075°11'3 5.7
2018-Jan-19 20:00N 39°54' W 075°08'3 6.2
2018-Jan-19 19:30N 39°58' W 075°08'3 5.8
2018-Jan-19 19:00N 39°59' W 075°04'0 0.4
2018-Jan-19 18:31N 39°59' W 075°04'4 8.5
2018-Jan-19 18:00N 39°56' W 075°08'4 8.2
2018-Jan-19 17:30N 39°53' W 075°12'510.8
2018-Jan-19 17:00N 39°51' W 075°18'3 5.6
2018-Jan-19 16:30N 39°50' W 075°22'0 0.2
2018-Jan-19 16:00N 39°50' W 075°22'0 0.2
2018-Jan-19 15:30N 39°50' W 075°22'0 0.1
2018-Jan-19 15:00N 39°50' W 075°22'0 0.4
2018-Jan-19 14:30N 39°49' W 075°22'0 0.0
2018-Jan-19 14:00N 39°49' W 075°22'0 0.0
2018-Jan-19 13:30N 39°49' W 075°22'0 0.0
2018-Jan-19 13:00N 39°49' W 075°22'0 0.1
2018-Jan-19 12:30N 39°49' W 075°22'0 0.1
2018-Jan-19 12:00N 39°49' W 075°22'0 0.1
2018-Jan-19 11:30N 39°49' W 075°22'0 0.1
2018-Jan-19 11:00N 39°49' W 075°22'0 0.3
2018-Jan-19 10:30N 39°50' W 075°22'4 8.1
2018-Jan-19 10:00N 39°51' W 075°17'510.4
2018-Jan-19 09:31N 39°53' W 075°11'4 7.9
2018-Jan-19 09:00N 39°57' W 075°08'4 7.4
2018-Jan-19 08:30N 39°59' W 075°05'0 0.1
2018-Jan-19 08:00N 39°59' W 075°05'3 5.4
2018-Jan-19 07:31N 39°58' W 075°08'4 8.9
2018-Jan-19 07:00N 39°53' W 075°08'3 6.3
2018-Jan-19 06:30N 39°54' W 075°12'0 0.8
2018-Jan-19 06:01N 39°54' W 075°13'1 1.6
2018-Jan-19 05:30N 39°54' W 075°12'0 0.0
2018-Jan-19 04:59N 39°54' W 075°12'0 0.0
2018-Jan-19 00:31N 39°54' W 075°12'0 0.0
2018-Jan-19 00:31N 39°54' W 075°12'0 0.6
2018-Jan-19 00:00N 39°54' W 075°12'0 0.0
2018-Jan-18 23:30N 39°54' W 075°12'0 0.0
2018-Jan-18 23:00N 39°54' W 075°12'0 0.0
2018-Jan-18 22:30N 39°54' W 075°12'3 6.3
2018-Jan-18 22:00N 39°51' W 075°15'4 7.9
2018-Jan-18 21:30N 39°51' W 075°20'3 5.6
2018-Jan-18 21:01N 39°50' W 075°23'2 2.3
2018-Jan-18 20:07N 39°48' W 075°25'0 0.0
2018-Jan-18 20:00N 39°48' W 075°25'0 0.0
2018-Jan-18 19:30N 39°48' W 075°25'0 0.0
2018-Jan-18 19:00N 39°48' W 075°25'0 0.0
2018-Jan-18 18:30N 39°48' W 075°25'0 0.0
2018-Jan-18 17:59N 39°48' W 075°25'0 0.0
2018-Jan-18 17:30N 39°48' W 075°25'0 0.0
2018-Jan-18 17:00N 39°48' W 075°25'0 0.0
2018-Jan-18 16:30N 39°48' W 075°25'0 0.0
2018-Jan-18 16:00N 39°48' W 075°25'0 0.0
2018-Jan-18 15:30N 39°48' W 075°25'0 0.0
2018-Jan-18 15:00N 39°48' W 075°25'0 0.0
2018-Jan-18 14:30N 39°48' W 075°25'0 0.0
2018-Jan-18 14:00N 39°48' W 075°25'0 0.0
2018-Jan-18 13:30N 39°48' W 075°25'0 0.0
2018-Jan-18 13:00N 39°48' W 075°25'0 0.0
2018-Jan-18 12:30N 39°48' W 075°25'1 2.5
2018-Jan-18 12:00N 39°49' W 075°24'1 1.5
2018-Jan-18 11:30N 39°50' W 075°23'0 0.1
2018-Jan-18 11:01N 39°50' W 075°23'0 0.2
2018-Jan-18 10:30N 39°50' W 075°23'0 0.0
2018-Jan-18 10:00N 39°50' W 075°23'0 0.0
2018-Jan-18 09:30N 39°50' W 075°23'0 0.0
2018-Jan-18 09:00N 39°50' W 075°23'0 0.0
2018-Jan-18 08:30N 39°50' W 075°23'0 0.0
2018-Jan-18 08:00N 39°50' W 075°23'0 0.0
2018-Jan-18 07:31N 39°50' W 075°23'0 0.0
2018-Jan-18 07:00N 39°50' W 075°23'0 0.0
2018-Jan-18 06:30N 39°50' W 075°23'0 0.0
2018-Jan-18 06:01N 39°50' W 075°23'0 0.0
2018-Jan-18 05:30N 39°50' W 075°23'0 0.0
2018-Jan-18 05:00N 39°50' W 075°23'0 0.0
2018-Jan-18 04:30N 39°50' W 075°23'0 0.0
2018-Jan-18 04:00N 39°50' W 075°23'0 0.0
2018-Jan-18 03:30N 39°50' W 075°23'0 0.0
2018-Jan-18 03:00N 39°50' W 075°23'0 0.0
2018-Jan-18 02:30N 39°50' W 075°23'0 0.0
2018-Jan-18 02:00N 39°50' W 075°23'0 0.0
2018-Jan-18 01:30N 39°50' W 075°23'0 0.0
2018-Jan-18 01:01N 39°50' W 075°23'0 0.0
2018-Jan-18 00:00N 39°50' W 075°23'0 0.0
2018-Jan-17 23:58N 39°50' W 075°23'  
2018-Jan-12 15:00N 39°50' W 075°21'1 2.3
2018-Jan-12 14:30N 39°49' W 075°22'1 2.9
2018-Jan-12 14:00N 39°51' W 075°21'2 4.2
2018-Jan-12 13:30N 39°51' W 075°18'0 0.0
2018-Jan-12 13:00N 39°51' W 075°18'0 0.1
2018-Jan-12 12:31N 39°51' W 075°18'3 6.5
2018-Jan-12 12:01N 39°50' W 075°22'0 0.8
2018-Jan-12 11:31N 39°50' W 075°22'0 0.1
2018-Jan-12 11:00N 39°50' W 075°22'0 0.0
2018-Jan-12 10:30N 39°50' W 075°22'0 0.0
2018-Jan-12 10:00N 39°50' W 075°22'0 0.0
2018-Jan-12 09:30N 39°50' W 075°22'0 0.0
2018-Jan-12 09:00N 39°50' W 075°22'  

Dump ship's entire track history